createdAt,value
2022-12-15T00:01:34.200Z,1.00
2022-12-15T00:04:36.787Z,0.80
2022-12-15T00:07:39.039Z,0.90
2022-12-15T00:10:41.093Z,0.90
2022-12-15T00:13:44.003Z,1.00
2022-12-15T00:16:46.283Z,1.00
2022-12-15T00:19:48.361Z,0.80
2022-12-15T00:22:50.401Z,0.90
2022-12-15T00:25:52.545Z,0.90
2022-12-15T00:28:55.501Z,0.90
2022-12-15T00:31:57.593Z,0.90
2022-12-15T00:34:59.715Z,0.90
2022-12-15T00:38:10.450Z,0.90
2022-12-15T00:41:17.853Z,1.00
2022-12-15T00:44:20.901Z,1.00
2022-12-15T00:47:23.426Z,0.90
2022-12-15T00:50:25.511Z,1.00
2022-12-15T00:53:28.126Z,0.90
2022-12-15T00:56:30.768Z,0.90
2022-12-15T00:59:35.845Z,1.00
2022-12-15T01:02:38.122Z,1.00
2022-12-15T01:05:40.828Z,1.00
2022-12-15T01:08:44.123Z,1.00
2022-12-15T01:11:48.742Z,1.00
2022-12-15T01:14:51.017Z,1.10
2022-12-15T01:17:53.046Z,1.00
2022-12-15T01:20:56.967Z,1.00
2022-12-15T01:24:00.019Z,0.90
2022-12-15T01:27:03.642Z,1.00
2022-12-15T01:30:07.405Z,0.90
2022-12-15T01:33:09.540Z,0.90
2022-12-15T01:36:12.290Z,1.00
2022-12-15T01:39:14.421Z,1.00
2022-12-15T01:42:16.819Z,0.90
2022-12-15T01:45:54.260Z,0.90
2022-12-15T01:49:11.909Z,1.00
2022-12-15T01:52:16.052Z,1.00
2022-12-15T01:55:20.154Z,0.90
2022-12-15T01:58:23.025Z,0.90
2022-12-15T02:01:25.791Z,1.00
2022-12-15T02:04:28.619Z,1.00
2022-12-15T02:07:32.149Z,1.00
2022-12-15T02:10:52.479Z,0.90
2022-12-15T02:14:04.854Z,0.90
2022-12-15T02:17:12.458Z,1.00
2022-12-15T02:20:33.445Z,1.00
2022-12-15T02:24:06.143Z,1.00
2022-12-15T02:27:43.103Z,1.00
2022-12-15T02:30:51.968Z,0.80
2022-12-15T02:34:19.188Z,1.00
2022-12-15T02:37:34.530Z,0.80
2022-12-15T02:40:37.616Z,0.80
2022-12-15T02:43:40.002Z,0.90
2022-12-15T02:47:00.114Z,1.00
2022-12-15T02:50:26.992Z,1.00
2022-12-15T02:54:02.032Z,1.00
2022-12-15T02:57:18.823Z,1.00
2022-12-15T03:00:21.899Z,0.80
2022-12-15T03:03:25.154Z,1.00
2022-12-15T03:06:27.873Z,0.80
2022-12-15T03:09:31.114Z,0.80
2022-12-15T03:12:33.176Z,0.70
2022-12-15T03:15:38.115Z,0.80
2022-12-15T03:18:40.777Z,0.90
2022-12-15T03:21:43.013Z,0.80
2022-12-15T03:24:45.098Z,0.80
2022-12-15T03:34:16.010Z,0.80
2022-12-15T03:37:18.296Z,0.90
2022-12-15T03:40:20.561Z,0.90
2022-12-15T03:43:23.162Z,1.00
2022-12-15T03:46:25.332Z,0.90
2022-12-15T03:49:27.397Z,0.80
2022-12-15T03:52:29.529Z,0.70
2022-12-15T03:55:32.036Z,0.80
2022-12-15T03:58:34.055Z,0.80
2022-12-15T04:01:37.146Z,1.00
2022-12-15T04:04:39.336Z,0.90
2022-12-15T04:07:41.660Z,0.80
2022-12-15T04:10:46.157Z,0.80
2022-12-15T04:13:48.300Z,0.90
2022-12-15T04:16:50.468Z,0.90
2022-12-15T04:19:55.051Z,0.80
2022-12-15T04:22:57.297Z,0.80
2022-12-15T04:25:59.328Z,0.60
2022-12-15T04:29:01.422Z,0.80
2022-12-15T04:32:03.506Z,0.80
2022-12-15T04:35:05.853Z,0.80
2022-12-15T04:38:09.338Z,0.90
2022-12-15T04:41:12.094Z,0.80
2022-12-15T04:44:14.699Z,0.80
2022-12-15T04:47:16.713Z,0.80
2022-12-15T04:50:18.906Z,0.80
2022-12-15T04:53:23.167Z,0.90
2022-12-15T04:56:25.360Z,0.80
2022-12-15T04:59:27.404Z,0.80
2022-12-15T05:02:29.706Z,0.80
2022-12-15T05:05:31.817Z,0.80
2022-12-15T05:08:33.915Z,0.80
2022-12-15T05:11:37.552Z,0.90
2022-12-15T05:14:39.548Z,0.70
2022-12-15T05:17:42.096Z,0.80
2022-12-15T05:20:44.188Z,0.80
2022-12-15T05:23:46.209Z,0.80
2022-12-15T05:26:52.656Z,0.70
2022-12-15T05:29:55.358Z,0.70
2022-12-15T05:32:57.474Z,0.60
2022-12-15T05:35:59.446Z,0.80
2022-12-15T05:39:01.435Z,0.90
2022-12-15T05:42:03.922Z,0.90
2022-12-15T05:45:06.512Z,0.80
2022-12-15T05:48:08.909Z,0.80
2022-12-15T05:51:12.741Z,0.90
2022-12-15T05:54:17.663Z,0.60
2022-12-15T05:57:19.780Z,0.80
2022-12-15T06:00:22.178Z,0.80
2022-12-15T06:03:24.316Z,0.80
2022-12-15T06:06:26.601Z,1.00
2022-12-15T06:09:28.818Z,0.80
2022-12-15T06:12:31.193Z,0.70
2022-12-15T06:15:33.291Z,0.70
2022-12-15T06:18:38.438Z,0.80
2022-12-15T06:21:40.711Z,0.80
2022-12-15T06:24:42.908Z,0.70
2022-12-15T06:27:45.335Z,0.70
2022-12-15T06:30:47.370Z,0.60
2022-12-15T06:33:51.639Z,0.70
2022-12-15T06:36:55.579Z,0.60
2022-12-15T06:39:57.732Z,0.60
2022-12-15T06:42:59.858Z,0.60
2022-12-15T06:46:02.989Z,0.70
2022-12-15T06:49:05.399Z,0.60
2022-12-15T06:52:07.994Z,0.80
2022-12-15T06:55:10.059Z,0.70
2022-12-15T06:58:13.815Z,0.80
2022-12-15T07:01:17.907Z,0.80
2022-12-15T07:04:20.263Z,0.70
2022-12-15T07:07:22.578Z,0.70
2022-12-15T07:10:24.664Z,0.50
2022-12-15T07:13:27.098Z,0.60
2022-12-15T07:16:29.238Z,0.70
2022-12-15T07:19:31.271Z,0.60
2022-12-15T07:22:33.751Z,0.70
2022-12-15T07:25:40.094Z,0.50
2022-12-15T07:28:42.151Z,0.60
2022-12-15T07:31:44.228Z,0.70
2022-12-15T07:34:46.373Z,0.70
2022-12-15T07:37:50.508Z,0.80
2022-12-15T07:40:52.483Z,0.70
2022-12-15T07:43:54.604Z,0.60
2022-12-15T07:46:56.630Z,0.50
2022-12-15T07:49:58.725Z,0.70
2022-12-15T07:53:00.910Z,0.70
2022-12-15T07:56:07.885Z,0.70
2022-12-15T07:59:10.759Z,0.50
2022-12-15T08:02:14.577Z,0.80
2022-12-15T08:05:19.609Z,0.70
2022-12-15T08:08:22.766Z,1.00
2022-12-15T08:11:24.854Z,0.70
2022-12-15T08:14:27.050Z,0.80
2022-12-15T08:17:29.151Z,0.60
2022-12-15T08:20:31.826Z,0.70
2022-12-15T08:23:34.627Z,0.80
2022-12-15T08:26:37.814Z,0.90
2022-12-15T08:29:55.080Z,1.00
2022-12-15T08:32:57.085Z,0.70
2022-12-15T08:36:04.766Z,0.70
2022-12-15T08:39:06.843Z,0.90
2022-12-15T08:42:08.991Z,0.70
2022-12-15T08:45:11.528Z,0.50
2022-12-15T08:48:13.524Z,0.70
2022-12-15T08:51:16.170Z,0.30
2022-12-15T08:54:18.882Z,0.20
2022-12-15T08:57:21.142Z,0.50
2022-12-15T09:00:23.310Z,0.60
2022-12-15T09:03:27.119Z,0.60
2022-12-15T09:06:31.779Z,0.80
2022-12-15T09:09:33.800Z,1.00
2022-12-15T09:12:35.915Z,1.50
2022-12-15T09:16:07.705Z,1.80
2022-12-15T09:19:00.458Z,1.80
2022-12-15T09:22:02.831Z,2.80
2022-12-15T09:25:05.779Z,2.50
2022-12-15T09:28:07.813Z,2.70
2022-12-15T09:31:16.084Z,2.30
2022-12-15T09:34:18.206Z,2.10
2022-12-15T09:37:20.875Z,2.30
2022-12-15T09:40:23.149Z,2.10
2022-12-15T09:43:38.951Z,2.10
2022-12-15T09:47:20.468Z,2.40
2022-12-15T09:50:36.023Z,2.10
2022-12-15T09:53:54.859Z,2.10
2022-12-15T09:57:01.140Z,2.40
2022-12-15T10:00:44.637Z,2.60
2022-12-15T10:04:19.647Z,2.40
2022-12-15T10:07:39.261Z,3.20
2022-12-15T10:11:05.003Z,3.30
2022-12-15T10:14:20.707Z,3.20
2022-12-15T10:18:00.997Z,3.20
2022-12-15T10:21:03.442Z,4.10
2022-12-15T10:24:44.565Z,3.50
2022-12-15T10:28:13.156Z,3.60
2022-12-15T10:31:31.140Z,3.50
2022-12-15T10:34:35.613Z,3.10
2022-12-15T10:37:38.606Z,2.90
2022-12-15T10:40:51.153Z,2.80
2022-12-15T10:43:54.247Z,3.10
2022-12-15T10:46:56.724Z,3.10
2022-12-15T10:50:24.282Z,3.40
2022-12-15T10:53:54.666Z,3.20
2022-12-15T10:56:59.112Z,3.30
2022-12-15T11:00:39.342Z,3.40
2022-12-15T11:03:41.686Z,3.10
2022-12-15T11:06:44.127Z,2.80
2022-12-15T11:09:48.594Z,2.70
2022-12-15T11:13:09.945Z,2.70
2022-12-15T11:16:17.962Z,2.50
2022-12-15T11:19:48.026Z,2.40
2022-12-15T11:23:04.226Z,2.40
2022-12-15T11:26:20.495Z,2.40
2022-12-15T11:30:00.116Z,2.40
2022-12-15T11:33:02.804Z,2.60
2022-12-15T11:36:28.406Z,2.50
2022-12-15T11:39:55.197Z,2.40
2022-12-15T11:43:16.002Z,2.10
2022-12-15T11:46:26.791Z,1.80
2022-12-15T11:49:54.741Z,2.00
2022-12-15T12:03:50.289Z,1.50
2022-12-15T12:07:27.604Z,1.40
2022-12-15T12:10:52.414Z,1.60
2022-12-15T12:14:13.421Z,1.90
2022-12-15T12:17:30.392Z,1.90
2022-12-15T12:20:50.600Z,1.60
2022-12-15T12:24:00.115Z,1.40
2022-12-15T12:27:04.511Z,1.40
2022-12-15T12:30:14.520Z,1.30
2022-12-15T12:33:41.834Z,1.40
2022-12-15T12:36:44.805Z,1.50
2022-12-15T12:39:53.615Z,1.60
2022-12-15T12:42:57.800Z,1.40
2022-12-15T12:46:09.444Z,1.30
2022-12-15T12:49:41.740Z,1.30
2022-12-15T12:52:51.605Z,1.40
2022-12-15T12:55:53.630Z,1.30
2022-12-15T12:58:55.649Z,1.30
2022-12-15T13:02:11.378Z,1.40
2022-12-15T13:05:33.421Z,1.10
2022-12-15T13:08:52.659Z,1.40
2022-12-15T13:12:00.825Z,1.40
2022-12-15T13:15:18.614Z,1.40
2022-12-15T13:18:23.763Z,1.40
2022-12-15T13:21:43.790Z,1.30
2022-12-15T13:24:51.860Z,1.40
2022-12-15T13:27:58.885Z,1.30
2022-12-15T13:31:19.351Z,1.50
2022-12-15T13:34:24.400Z,1.50
2022-12-15T13:37:44.745Z,1.40
2022-12-15T13:40:53.267Z,1.60
2022-12-15T13:43:57.276Z,1.60
2022-12-15T13:47:13.285Z,1.40
2022-12-15T13:50:51.233Z,1.30
2022-12-15T13:53:59.458Z,1.20
2022-12-15T13:57:10.479Z,1.20
2022-12-15T14:00:15.860Z,1.10
2022-12-15T14:03:17.826Z,1.00
2022-12-15T14:06:19.941Z,1.00
2022-12-15T14:09:39.302Z,1.00
2022-12-15T14:12:41.765Z,0.80
2022-12-15T14:15:47.545Z,0.70
2022-12-15T14:19:13.304Z,1.00
2022-12-15T14:25:54.351Z,0.60
2022-12-15T14:29:01.829Z,0.60
2022-12-15T14:32:04.432Z,0.60
2022-12-15T14:35:12.179Z,0.40
2022-12-15T14:38:37.410Z,0.50
2022-12-15T14:41:48.998Z,0.30
2022-12-15T14:44:57.482Z,0.30
2022-12-15T14:48:39.573Z,0.20
2022-12-15T14:51:30.287Z,0.30
2022-12-15T14:54:34.103Z,0.40
2022-12-15T14:57:45.371Z,0.30
2022-12-15T15:00:52.506Z,0.20
2022-12-15T15:04:00.095Z,0.00
2022-12-15T15:07:06.348Z,0.00
2022-12-15T15:10:24.212Z,-0.10
2022-12-15T15:13:39.798Z,-0.10
2022-12-15T15:16:43.650Z,-0.10
2022-12-15T15:20:08.314Z,-0.20
2022-12-15T15:23:10.318Z,0.00
2022-12-15T15:26:16.703Z,-0.10
2022-12-15T15:29:39.016Z,-0.20
2022-12-15T15:33:10.473Z,-0.20
2022-12-15T15:36:12.658Z,-0.30
2022-12-15T15:39:15.859Z,-0.50
2022-12-15T15:42:17.810Z,-0.50
2022-12-15T15:45:19.760Z,-0.50
2022-12-15T15:48:26.785Z,-0.40
2022-12-15T15:51:31.018Z,-0.50
2022-12-15T15:54:35.184Z,-0.50
2022-12-15T15:57:37.113Z,-0.50
2022-12-15T16:00:39.776Z,-0.40
2022-12-15T16:03:41.954Z,-0.40
2022-12-15T16:06:47.638Z,-0.20
2022-12-15T16:09:50.631Z,-0.20
2022-12-15T16:12:55.685Z,-0.40
2022-12-15T16:15:57.826Z,-0.50
2022-12-15T16:18:59.781Z,-0.50
2022-12-15T16:22:01.671Z,-0.50
2022-12-15T16:25:03.937Z,-0.50
2022-12-15T16:28:13.650Z,-0.40
2022-12-15T16:31:16.407Z,-0.50
2022-12-15T16:34:18.363Z,-0.60
2022-12-15T16:37:27.991Z,-0.50
2022-12-15T16:40:29.859Z,-0.50
2022-12-15T16:43:37.333Z,-0.30
2022-12-15T16:46:41.328Z,-0.50
2022-12-15T16:49:43.424Z,-0.30
2022-12-15T16:52:49.390Z,-0.50
2022-12-15T16:55:54.813Z,-0.50
2022-12-15T16:59:15.633Z,-0.40
2022-12-15T17:02:29.652Z,-0.50
2022-12-15T17:05:33.923Z,-0.30
2022-12-15T17:08:43.350Z,-0.20
2022-12-15T17:11:45.773Z,-0.50
2022-12-15T17:14:47.685Z,-0.30
2022-12-15T17:17:50.342Z,-0.40
2022-12-15T17:21:10.310Z,-0.30
2022-12-15T17:24:16.031Z,-0.20
2022-12-15T17:27:27.115Z,0.00
2022-12-15T17:30:29.035Z,-0.10
2022-12-15T17:33:34.800Z,-0.30
2022-12-15T17:36:37.391Z,-0.20
2022-12-15T17:39:40.413Z,-0.10
2022-12-15T17:42:42.413Z,-0.10
2022-12-15T17:45:44.635Z,-0.10
2022-12-15T17:48:46.542Z,-0.30
2022-12-15T17:51:49.088Z,-0.30
2022-12-15T17:54:52.157Z,-0.20
2022-12-15T17:57:55.129Z,-0.30
2022-12-15T18:01:00.349Z,-0.10
2022-12-15T18:04:02.606Z,-0.20
2022-12-15T18:07:04.964Z,-0.30
2022-12-15T18:10:18.886Z,-0.30
2022-12-15T18:13:24.338Z,-0.20
2022-12-15T18:16:26.434Z,-0.30
2022-12-15T18:19:34.690Z,-0.10
2022-12-15T18:22:37.227Z,-0.20
2022-12-15T18:25:39.469Z,-0.10
2022-12-15T18:28:41.920Z,-0.10
2022-12-15T18:31:48.857Z,-0.20
2022-12-15T18:34:51.550Z,0.00
2022-12-15T18:37:59.652Z,0.00
2022-12-15T18:41:02.002Z,-0.10
2022-12-15T18:44:04.329Z,0.00
2022-12-15T18:47:15.873Z,-0.10
2022-12-15T18:50:26.256Z,-0.10
2022-12-15T18:53:35.139Z,-0.10
2022-12-15T18:56:37.542Z,-0.10
2022-12-15T18:59:39.682Z,-0.20
2022-12-15T19:02:42.797Z,-0.10
2022-12-15T19:05:45.447Z,-0.10
2022-12-15T19:08:49.178Z,0.10
2022-12-15T19:11:51.413Z,0.00
2022-12-15T19:14:55.127Z,0.00
2022-12-15T19:17:57.676Z,0.10
2022-12-15T19:21:05.420Z,0.10
2022-12-15T19:24:12.066Z,0.10
2022-12-15T19:27:19.741Z,0.10
2022-12-15T19:30:22.102Z,0.10
2022-12-15T19:33:24.316Z,0.00
2022-12-15T19:36:26.633Z,0.00
2022-12-15T19:39:30.285Z,0.00
2022-12-15T19:42:34.811Z,0.00
2022-12-15T19:45:37.100Z,0.20
2022-12-15T19:48:39.272Z,0.20
2022-12-15T19:51:41.482Z,0.10
2022-12-15T19:54:45.103Z,0.30
2022-12-15T19:57:46.987Z,0.20
2022-12-15T20:00:49.077Z,0.30
2022-12-15T20:03:52.484Z,0.10
2022-12-15T20:06:54.603Z,0.20
2022-12-15T20:09:56.670Z,0.10
2022-12-15T20:12:58.757Z,0.10
2022-12-15T20:16:00.737Z,0.20
2022-12-15T20:19:02.725Z,0.20
2022-12-15T20:22:05.229Z,0.10
2022-12-15T20:25:07.629Z,0.10
2022-12-15T20:28:22.525Z,0.10
2022-12-15T20:31:24.854Z,0.10
2022-12-15T20:34:26.735Z,0.20
2022-12-15T20:37:30.067Z,0.20
2022-12-15T20:40:31.987Z,0.10
2022-12-15T20:43:34.481Z,0.00
2022-12-15T20:46:37.016Z,-0.10
2022-12-15T20:49:39.220Z,0.10
2022-12-15T20:52:41.101Z,0.10
2022-12-15T20:55:43.273Z,0.00
2022-12-15T20:58:45.112Z,0.10
2022-12-15T21:01:47.428Z,0.10
2022-12-15T21:04:50.933Z,0.00
2022-12-15T21:07:53.308Z,0.00
2022-12-15T21:11:00.116Z,0.10
2022-12-15T21:14:02.000Z,-0.10
2022-12-15T21:17:03.921Z,-0.20
2022-12-15T21:20:06.473Z,0.00
2022-12-15T21:23:27.020Z,0.00
2022-12-15T21:26:29.322Z,0.10
2022-12-15T21:29:31.840Z,0.00
2022-12-15T21:32:33.783Z,0.00
2022-12-15T21:35:36.794Z,0.00
2022-12-15T21:38:40.554Z,-0.10
2022-12-15T21:41:44.809Z,-0.20
2022-12-15T21:44:47.190Z,0.10
2022-12-15T21:47:52.116Z,0.20
2022-12-15T21:50:56.614Z,0.00
2022-12-15T21:53:58.618Z,0.00
2022-12-15T21:57:00.589Z,0.00
2022-12-15T22:00:03.080Z,0.10
2022-12-15T22:03:13.884Z,-0.10
2022-12-15T22:06:21.626Z,-0.10
2022-12-15T22:09:23.564Z,-0.30
2022-12-15T22:12:25.470Z,-0.20
2022-12-15T22:15:28.890Z,-0.20
2022-12-15T22:18:31.209Z,-0.10
2022-12-15T22:21:33.370Z,-0.10
2022-12-15T22:24:35.302Z,-0.10
2022-12-15T22:27:37.198Z,-0.10
2022-12-15T22:30:39.167Z,-0.10
2022-12-15T22:33:41.112Z,0.10
2022-12-15T22:36:43.319Z,0.00
2022-12-15T22:39:45.230Z,-0.10
2022-12-15T22:42:51.913Z,-0.10
2022-12-15T22:45:55.448Z,-0.10
2022-12-15T22:48:57.438Z,-0.10
2022-12-15T22:51:59.329Z,-0.20
2022-12-15T22:55:01.226Z,-0.20
2022-12-15T22:58:08.189Z,-0.10
2022-12-15T23:01:11.142Z,-0.10
2022-12-15T23:04:13.144Z,-0.10
2022-12-15T23:07:15.121Z,-0.20
2022-12-15T23:10:18.780Z,0.00
2022-12-15T23:13:21.202Z,0.00
2022-12-15T23:16:23.265Z,0.00
2022-12-15T23:19:25.152Z,0.00
2022-12-15T23:22:27.164Z,0.00
2022-12-15T23:25:29.443Z,0.00
2022-12-15T23:28:32.253Z,0.10
2022-12-15T23:31:34.204Z,0.10
2022-12-15T23:34:36.096Z,-0.10
2022-12-15T23:37:38.078Z,0.10
2022-12-15T23:40:52.783Z,0.10
2022-12-15T23:43:55.432Z,0.10
2022-12-15T23:46:59.665Z,0.20
2022-12-15T23:50:01.557Z,0.10
2022-12-15T23:53:04.446Z,0.20
2022-12-15T23:56:08.078Z,0.20
2022-12-15T23:59:09.985Z,0.00
